createdAt,value
2022-08-18T00:01:54.355Z,20.60
2022-08-18T00:04:57.956Z,20.60
2022-08-18T00:08:02.190Z,20.60
2022-08-18T00:11:07.341Z,20.70
2022-08-18T00:14:21.223Z,20.70
2022-08-18T00:17:25.611Z,20.70
2022-08-18T00:20:28.585Z,20.70
2022-08-18T00:23:32.671Z,20.70
2022-08-18T00:26:37.279Z,20.70
2022-08-18T00:29:40.309Z,20.70
2022-08-18T00:32:45.741Z,20.60
2022-08-18T00:35:48.742Z,20.60
2022-08-18T00:38:51.944Z,20.60
2022-08-18T00:41:56.295Z,20.60
2022-08-18T00:45:02.261Z,20.70
2022-08-18T00:48:07.380Z,20.60
2022-08-18T00:51:13.823Z,20.70
2022-08-18T00:54:21.451Z,20.70
2022-08-18T00:57:27.208Z,20.70
2022-08-18T01:00:30.427Z,20.70
2022-08-18T01:03:35.180Z,20.70
2022-08-18T01:06:43.496Z,20.70
2022-08-18T01:09:46.860Z,20.70
2022-08-18T01:12:53.683Z,20.70
2022-08-18T01:15:56.872Z,20.70
2022-08-18T01:19:17.597Z,20.60
2022-08-18T01:22:28.274Z,20.60
2022-08-18T01:25:51.426Z,20.60
2022-08-18T01:28:54.911Z,20.60
2022-08-18T01:31:57.907Z,20.60
2022-08-18T01:35:01.298Z,20.60
2022-08-18T01:38:04.362Z,20.50
2022-08-18T01:41:27.718Z,20.50
2022-08-18T01:44:33.787Z,20.50
2022-08-18T01:47:47.481Z,20.50
2022-08-18T01:50:54.406Z,20.50
2022-08-18T01:53:58.340Z,20.50
2022-08-18T01:57:03.408Z,20.50
2022-08-18T02:00:07.589Z,20.50
2022-08-18T02:03:15.836Z,20.50
2022-08-18T02:06:32.232Z,20.40
2022-08-18T02:09:38.595Z,20.50
2022-08-18T02:12:43.273Z,20.50
2022-08-18T02:15:46.346Z,20.40
2022-08-18T02:18:49.338Z,20.40
2022-08-18T02:21:53.008Z,20.40
2022-08-18T02:24:57.936Z,20.40
2022-08-18T02:28:02.276Z,20.30
2022-08-18T02:31:06.962Z,20.30
2022-08-18T02:34:14.280Z,20.30
2022-08-18T02:37:17.285Z,20.20
2022-08-18T02:40:20.730Z,20.20
2022-08-18T02:43:25.532Z,20.10
2022-08-18T02:46:30.147Z,20.10
2022-08-18T02:49:36.512Z,20.10
2022-08-18T02:52:40.645Z,20.10
2022-08-18T02:55:43.842Z,20.10
2022-08-18T02:58:48.227Z,20.10
2022-08-18T03:01:54.371Z,20.10
2022-08-18T03:04:57.455Z,20.10
2022-08-18T03:08:00.497Z,20.10
2022-08-18T03:11:03.489Z,20.10
2022-08-18T03:14:08.728Z,20.10
2022-08-18T03:17:15.004Z,20.10
2022-08-18T03:20:18.179Z,20.20
2022-08-18T03:23:33.623Z,20.10
2022-08-18T03:26:36.922Z,20.10
2022-08-18T03:29:41.288Z,20.10
2022-08-18T03:32:45.683Z,20.10
2022-08-18T03:35:49.351Z,20.10
2022-08-18T03:38:54.018Z,20.10
2022-08-18T03:42:01.728Z,20.10
2022-08-18T03:45:17.275Z,20.10
2022-08-18T03:48:21.165Z,20.10
2022-08-18T03:51:26.706Z,20.10
2022-08-18T03:54:32.176Z,20.10
2022-08-18T03:57:49.107Z,20.10
2022-08-18T04:00:53.658Z,20.10
2022-08-18T04:03:58.349Z,20.10
2022-08-18T04:07:04.688Z,20.10
2022-08-18T04:10:08.532Z,20.10
2022-08-18T04:13:22.374Z,20.10
2022-08-18T04:16:27.223Z,20.00
2022-08-18T04:19:30.997Z,19.90
2022-08-18T04:22:35.003Z,19.90
2022-08-18T04:25:38.000Z,19.90
2022-08-18T04:28:41.192Z,19.90
2022-08-18T04:31:45.639Z,19.90
2022-08-18T04:34:48.628Z,20.00
2022-08-18T04:37:52.103Z,20.00
2022-08-18T04:40:55.391Z,20.00
2022-08-18T04:44:00.331Z,20.10
2022-08-18T04:47:06.458Z,20.10
2022-08-18T04:50:10.514Z,20.10
2022-08-18T04:53:31.462Z,20.10
2022-08-18T04:56:37.351Z,20.20
2022-08-18T04:59:44.869Z,20.30
2022-08-18T05:02:49.423Z,20.30
2022-08-18T05:05:52.397Z,20.40
2022-08-18T05:08:56.928Z,20.40
2022-08-18T05:11:59.999Z,20.50
2022-08-18T05:15:03.201Z,20.50
2022-08-18T05:18:07.627Z,20.50
2022-08-18T05:21:16.492Z,20.60
2022-08-18T05:24:20.714Z,20.60
2022-08-18T05:27:23.710Z,20.60
2022-08-18T05:30:26.953Z,20.70
2022-08-18T05:33:31.290Z,20.70
2022-08-18T05:36:59.302Z,20.80
2022-08-18T05:40:10.795Z,20.80
2022-08-18T05:43:17.295Z,20.80
2022-08-18T05:46:22.738Z,20.90
2022-08-18T05:49:30.263Z,20.90
2022-08-18T05:52:37.292Z,21.00
2022-08-18T05:56:02.736Z,21.00
2022-08-18T05:59:06.407Z,21.10
2022-08-18T06:02:15.895Z,21.10
2022-08-18T06:05:28.110Z,21.20
2022-08-18T06:08:37.321Z,21.20
2022-08-18T06:11:40.700Z,21.20
2022-08-18T06:14:43.713Z,21.20
2022-08-18T06:18:20.261Z,21.20
2022-08-18T06:21:48.289Z,21.30
2022-08-18T06:25:01.328Z,21.40
2022-08-18T06:28:08.142Z,21.40
2022-08-18T06:31:20.098Z,21.50
2022-08-18T06:34:42.561Z,21.50
2022-08-18T06:38:27.627Z,21.60
2022-08-18T06:41:40.971Z,21.60
2022-08-18T06:44:50.860Z,21.70
2022-08-18T06:47:59.535Z,21.70
2022-08-18T06:51:04.480Z,21.70
2022-08-18T06:54:26.508Z,21.70
2022-08-18T06:57:34.482Z,21.60
2022-08-18T07:00:38.577Z,21.60
2022-08-18T07:03:45.073Z,21.50
2022-08-18T07:06:48.297Z,21.60
2022-08-18T07:09:52.850Z,21.60
2022-08-18T07:13:07.997Z,21.50
2022-08-18T07:16:30.308Z,21.60
2022-08-18T07:19:42.529Z,21.60
2022-08-18T07:22:57.384Z,21.60
2022-08-18T07:26:09.482Z,21.50
2022-08-18T07:29:16.858Z,21.40
2022-08-18T07:32:22.926Z,21.30
2022-08-18T07:35:31.984Z,21.30
2022-08-18T07:38:43.811Z,21.30
2022-08-18T07:41:53.498Z,21.20
2022-08-18T07:45:00.147Z,21.10
2022-08-18T07:48:34.418Z,21.10
2022-08-18T07:51:43.750Z,21.10
2022-08-18T07:54:57.799Z,21.00
2022-08-18T07:58:15.773Z,21.10
2022-08-18T08:01:26.042Z,21.10
2022-08-18T08:04:37.962Z,21.20
2022-08-18T08:07:47.364Z,21.20
2022-08-18T08:11:02.153Z,21.10
2022-08-18T08:14:25.686Z,21.10
2022-08-18T08:17:34.221Z,21.00
2022-08-18T08:20:44.488Z,21.00
2022-08-18T08:23:55.189Z,21.00
2022-08-18T08:27:04.770Z,21.00
2022-08-18T08:30:13.182Z,21.00
2022-08-18T08:33:24.436Z,21.10
2022-08-18T08:36:34.169Z,21.20
2022-08-18T08:39:41.763Z,21.30
2022-08-18T08:42:50.251Z,21.40
2022-08-18T08:46:05.701Z,21.60
2022-08-18T08:49:17.137Z,21.70
2022-08-18T08:52:25.866Z,21.70
2022-08-18T08:55:33.664Z,21.80
2022-08-18T08:58:41.258Z,21.90
2022-08-18T09:01:54.656Z,22.00
2022-08-18T09:05:08.325Z,22.20
2022-08-18T09:08:29.815Z,22.30
2022-08-18T09:11:55.810Z,22.40
2022-08-18T09:15:39.601Z,22.50
2022-08-18T09:18:57.395Z,22.50
2022-08-18T09:22:05.235Z,22.60
2022-08-18T09:25:12.911Z,22.70
2022-08-18T09:28:18.932Z,22.70
2022-08-18T09:31:22.024Z,22.80
2022-08-18T09:34:40.426Z,22.80
2022-08-18T09:38:13.735Z,22.80
2022-08-18T09:41:33.015Z,22.80
2022-08-18T09:45:01.484Z,22.90
2022-08-18T09:48:28.043Z,22.90
2022-08-18T09:51:39.950Z,23.10
2022-08-18T09:54:52.827Z,23.20
2022-08-18T09:58:15.767Z,23.30
2022-08-18T10:01:36.587Z,23.30
2022-08-18T10:04:49.039Z,23.30
2022-08-18T10:07:56.066Z,23.40
2022-08-18T10:11:16.559Z,23.50
2022-08-18T10:14:45.984Z,23.60
2022-08-18T10:18:00.840Z,23.60
2022-08-18T10:21:12.662Z,23.70
2022-08-18T10:27:54.177Z,24.00
2022-08-18T10:31:09.768Z,24.40
2022-08-18T10:34:19.412Z,24.80
2022-08-18T10:37:26.382Z,25.00
2022-08-18T10:40:34.074Z,24.90
2022-08-18T10:43:55.057Z,24.80
2022-08-18T10:47:01.105Z,24.70
2022-08-18T10:50:09.304Z,24.80
2022-08-18T10:53:40.434Z,24.70
2022-08-18T10:56:49.828Z,24.70
2022-08-18T11:00:00.572Z,24.60
2022-08-18T11:06:41.505Z,24.60
2022-08-18T11:09:50.633Z,24.70
2022-08-18T11:13:08.734Z,24.90
2022-08-18T11:16:23.448Z,25.00
2022-08-18T11:19:27.465Z,25.10
2022-08-18T11:22:34.401Z,25.50
2022-08-18T11:25:39.861Z,25.80
2022-08-18T11:28:44.856Z,26.10
2022-08-18T11:35:16.172Z,26.20
2022-08-18T11:38:23.387Z,26.30
2022-08-18T11:44:55.584Z,26.90
2022-08-18T11:48:10.513Z,27.20
2022-08-18T11:51:23.590Z,27.30
2022-08-18T11:54:37.063Z,27.60
2022-08-18T11:57:50.093Z,28.00
2022-08-18T12:01:01.680Z,28.20
2022-08-18T12:04:16.803Z,28.40
2022-08-18T12:07:29.686Z,28.30
2022-08-18T12:10:33.895Z,28.00
2022-08-18T12:13:37.078Z,27.90
2022-08-18T12:16:46.559Z,27.90
2022-08-18T12:19:53.587Z,28.20
2022-08-18T12:22:57.874Z,28.30
2022-08-18T12:26:01.096Z,28.50
2022-08-18T12:29:04.625Z,28.60
2022-08-18T12:32:18.259Z,28.90
2022-08-18T12:35:36.943Z,29.00
2022-08-18T12:38:44.183Z,29.10
2022-08-18T12:41:55.671Z,29.30
2022-08-18T12:44:58.680Z,29.30
2022-08-18T12:48:04.416Z,29.40
2022-08-18T12:51:08.619Z,29.80
2022-08-18T12:54:13.522Z,30.50
2022-08-18T12:57:33.217Z,31.20
2022-08-18T13:00:47.142Z,32.10
2022-08-18T13:04:11.144Z,32.70
2022-08-18T13:07:15.901Z,33.80
2022-08-18T13:10:45.688Z,35.00
2022-08-18T13:13:45.807Z,35.50
2022-08-18T13:16:53.975Z,35.60
2022-08-18T13:19:59.481Z,35.20
2022-08-18T13:23:03.564Z,35.20
2022-08-18T13:26:22.731Z,34.80
2022-08-18T13:29:26.093Z,34.20
2022-08-18T13:32:33.735Z,33.30
2022-08-18T13:35:44.514Z,32.50
2022-08-18T13:38:47.819Z,32.00
2022-08-18T13:41:53.542Z,31.60
2022-08-18T13:44:59.405Z,31.20
2022-08-18T13:48:22.523Z,30.90
2022-08-18T13:51:28.179Z,30.70
2022-08-18T13:54:35.544Z,30.20
2022-08-18T13:57:39.461Z,29.90
2022-08-18T14:00:43.555Z,29.70
2022-08-18T14:03:47.871Z,29.30
2022-08-18T14:06:57.317Z,29.00
2022-08-18T14:10:04.580Z,28.80
2022-08-18T14:13:20.223Z,28.70
2022-08-18T14:16:27.479Z,28.70
2022-08-18T14:19:48.146Z,28.60
2022-08-18T14:23:12.166Z,28.40
2022-08-18T14:26:32.610Z,28.20
2022-08-18T14:29:36.335Z,28.20
2022-08-18T14:32:50.707Z,28.20
2022-08-18T14:36:05.971Z,28.10
2022-08-18T14:39:11.618Z,28.10
2022-08-18T14:42:16.599Z,28.20
2022-08-18T14:45:31.648Z,28.30
2022-08-18T14:48:37.906Z,28.20
2022-08-18T14:51:45.580Z,27.90
2022-08-18T14:54:51.069Z,28.10
2022-08-18T14:57:54.523Z,28.20
2022-08-18T15:00:59.117Z,28.20
2022-08-18T15:04:18.464Z,28.20
2022-08-18T15:07:23.907Z,28.20
2022-08-18T15:10:28.609Z,28.20
2022-08-18T15:13:32.124Z,28.20
2022-08-18T15:16:38.530Z,28.10
2022-08-18T15:19:58.970Z,28.10
2022-08-18T15:23:28.068Z,28.00
2022-08-18T15:26:34.584Z,27.80
2022-08-18T15:29:41.583Z,27.60
2022-08-18T15:32:50.043Z,27.50
2022-08-18T15:35:53.611Z,27.40
2022-08-18T15:38:56.726Z,27.40
2022-08-18T15:42:01.058Z,27.30
2022-08-18T15:45:11.985Z,27.10
2022-08-18T15:48:18.847Z,27.00
2022-08-18T15:51:22.034Z,26.80
2022-08-18T15:54:25.329Z,26.70
2022-08-18T15:57:39.900Z,26.60
2022-08-18T16:00:47.887Z,26.60
2022-08-18T16:03:53.709Z,26.50
2022-08-18T16:06:56.788Z,26.40
2022-08-18T16:09:59.873Z,26.40
2022-08-18T16:13:05.634Z,26.40
2022-08-18T16:16:13.099Z,26.40
2022-08-18T16:19:16.075Z,26.40
2022-08-18T16:22:21.663Z,26.30
2022-08-18T16:25:25.381Z,26.40
2022-08-18T16:28:35.051Z,26.30
2022-08-18T16:31:39.881Z,26.20
2022-08-18T16:34:43.036Z,26.20
2022-08-18T16:37:46.726Z,26.10
2022-08-18T16:40:49.849Z,26.00
2022-08-18T16:43:54.529Z,25.90
2022-08-18T16:46:57.523Z,25.80
2022-08-18T16:50:01.067Z,25.60
2022-08-18T16:53:04.709Z,25.40
2022-08-18T16:56:12.752Z,25.40
2022-08-18T16:59:34.612Z,25.40
2022-08-18T17:02:55.110Z,25.40
2022-08-18T17:06:02.083Z,25.30
2022-08-18T17:09:10.248Z,25.30
2022-08-18T17:12:13.313Z,25.20
2022-08-18T17:15:17.775Z,25.20
2022-08-18T17:18:21.005Z,25.10
2022-08-18T17:21:29.721Z,25.10
2022-08-18T17:24:33.237Z,25.10
2022-08-18T17:27:38.930Z,25.10
2022-08-18T17:30:49.568Z,25.00
2022-08-18T17:33:55.748Z,24.80
2022-08-18T17:37:01.347Z,24.80
2022-08-18T17:40:07.860Z,24.90
2022-08-18T17:43:14.762Z,24.90
2022-08-18T17:46:27.445Z,24.80
2022-08-18T17:50:01.938Z,24.80
2022-08-18T17:53:15.719Z,24.70
2022-08-18T17:56:23.010Z,24.60
2022-08-18T17:59:51.348Z,24.40
2022-08-18T18:02:56.474Z,24.40
2022-08-18T18:09:31.779Z,24.30
2022-08-18T18:12:36.898Z,24.20
2022-08-18T18:15:42.599Z,24.10
2022-08-18T18:18:47.899Z,24.00
2022-08-18T18:22:04.554Z,23.90
2022-08-18T18:25:11.161Z,23.70
2022-08-18T18:28:26.567Z,23.50
2022-08-18T18:31:31.825Z,23.50
2022-08-18T18:34:39.612Z,23.20
2022-08-18T18:37:49.215Z,23.20
2022-08-18T18:40:57.413Z,23.10
2022-08-18T18:44:09.354Z,23.10
2022-08-18T18:47:19.646Z,23.00
2022-08-18T18:50:30.996Z,22.90
2022-08-18T18:53:44.280Z,22.80
2022-08-18T18:56:52.454Z,22.80
2022-08-18T19:00:06.028Z,22.70
2022-08-18T19:03:17.662Z,22.60
2022-08-18T19:06:31.860Z,22.50
2022-08-18T19:09:41.196Z,22.50
2022-08-18T19:12:52.121Z,22.40
2022-08-18T19:15:58.678Z,22.40
2022-08-18T19:19:36.176Z,22.40
2022-08-18T19:22:38.851Z,22.30
2022-08-18T19:25:45.341Z,22.30
2022-08-18T19:29:11.883Z,22.20
2022-08-18T19:32:21.234Z,22.00
2022-08-18T19:35:35.759Z,22.00
2022-08-18T19:38:48.981Z,22.00
2022-08-18T19:41:59.287Z,21.90
2022-08-18T19:45:16.873Z,21.80
2022-08-18T19:48:27.800Z,21.80
2022-08-18T19:51:34.895Z,21.80
2022-08-18T19:54:50.800Z,21.80
2022-08-18T19:58:32.004Z,21.90
2022-08-18T20:01:46.594Z,21.80
2022-08-18T20:05:08.138Z,21.80
2022-08-18T20:08:38.710Z,21.80
2022-08-18T20:12:03.187Z,21.80
2022-08-18T20:15:15.900Z,21.80
2022-08-18T20:18:23.215Z,21.70
2022-08-18T20:21:41.921Z,21.60
2022-08-18T20:24:50.500Z,21.60
2022-08-18T20:28:23.579Z,21.60
2022-08-18T20:31:26.988Z,21.60
2022-08-18T20:34:32.091Z,21.60
2022-08-18T20:37:35.135Z,21.50
2022-08-18T20:40:45.035Z,21.40
2022-08-18T20:43:51.828Z,21.30
2022-08-18T20:47:04.952Z,21.30
2022-08-18T20:50:34.008Z,21.30
2022-08-18T20:53:56.308Z,21.30
2022-08-18T20:57:02.996Z,21.30
2022-08-18T21:00:14.669Z,21.20
2022-08-18T21:03:20.566Z,21.20
2022-08-18T21:06:28.763Z,21.30
2022-08-18T21:09:32.891Z,21.30
2022-08-18T21:12:36.353Z,21.30
2022-08-18T21:15:40.658Z,21.30
2022-08-18T21:18:51.396Z,21.30
2022-08-18T21:21:57.866Z,21.10
2022-08-18T21:25:02.957Z,21.20
2022-08-18T21:28:07.176Z,21.20
2022-08-18T21:31:43.108Z,21.10
2022-08-18T21:34:47.682Z,21.00
2022-08-18T21:37:59.877Z,21.00
2022-08-18T21:41:02.978Z,21.00
2022-08-18T21:44:08.689Z,21.00
2022-08-18T21:47:21.163Z,21.00
2022-08-18T21:50:31.967Z,21.00
2022-08-18T21:53:38.198Z,21.10
2022-08-18T21:56:41.232Z,21.10
2022-08-18T22:00:11.295Z,20.90
2022-08-18T22:03:22.858Z,20.90
2022-08-18T22:06:31.174Z,20.90
2022-08-18T22:10:13.372Z,20.90
2022-08-18T22:13:41.421Z,20.80
2022-08-18T22:16:44.463Z,20.80
2022-08-18T22:19:47.475Z,20.80
2022-08-18T22:23:08.204Z,20.90
2022-08-18T22:26:15.046Z,20.90
2022-08-18T22:29:27.906Z,20.90
2022-08-18T22:32:31.633Z,20.90
2022-08-18T22:35:35.171Z,20.90
2022-08-18T22:38:38.310Z,20.90
2022-08-18T22:41:42.369Z,20.80
2022-08-18T22:44:46.699Z,20.80
2022-08-18T22:47:49.685Z,20.90
2022-08-18T22:50:52.825Z,20.80
2022-08-18T22:53:56.750Z,20.80
2022-08-18T22:57:01.274Z,20.80
2022-08-18T23:00:10.218Z,20.80
2022-08-18T23:03:13.440Z,20.80
2022-08-18T23:06:16.450Z,20.80
2022-08-18T23:09:22.279Z,20.80
2022-08-18T23:12:25.830Z,20.90
2022-08-18T23:15:43.675Z,20.90
2022-08-18T23:18:46.652Z,21.00
2022-08-18T23:21:51.669Z,21.00
2022-08-18T23:24:54.703Z,21.00
2022-08-18T23:27:57.695Z,21.00
2022-08-18T23:31:02.068Z,21.00
2022-08-18T23:34:05.917Z,20.90
2022-08-18T23:37:10.218Z,20.90
2022-08-18T23:40:15.990Z,20.90
2022-08-18T23:43:20.387Z,20.90
2022-08-18T23:46:27.979Z,20.90
2022-08-18T23:49:31.935Z,20.90
2022-08-18T23:52:35.450Z,20.80
2022-08-18T23:55:39.267Z,20.90
2022-08-18T23:58:43.095Z,20.80
